ENOV/HOV METAR and TAF weather

Enter ICAO airport designator
Station Type Date Time Source
ENOV METAR 2019/06/15 13:20 UTC NOAA

ENOV 151320Z 21005KT 170V260 9999 FEW050 21/11 Q1016 RMK WIND 2175FT 31011KT


Station Type Date Time Source
ENOV Decoded METAR 2019/06/15 13:20 UTC NOAA

Orsta-Volda / Hovden, Norway (ENOV) 62-11N 006-04E 74M
Jun 15, 2019 - 09:20 AM EDT / 2019.06.15 1320 UTC
Wind: from the SSW (210 degrees) at 6 MPH (5 KT) (direction variable):0
Visibility: greater than 7 mile(s):0
Sky conditions: mostly clear
Temperature: 69 F (21 C)
Dew Point: 51 F (11 C)
Relative Humidity: 52%
Pressure (altimeter): 30.00 in. Hg (1016 hPa)
ob: ENOV 151320Z 21005KT 170V260 9999 FEW050 21/11 Q1016 RMK WIND 2175FT 31011KT
cycle: 13

Station Type Date Time Source
ENOV TAF UTC NOAA

Error!

Example: see airport list